sensor_id;sensor_type;location;lat;lon;timestamp;P1;durP1;ratioP1;P2;durP2;ratioP2
24644;SDS011;12780;45.502;9.146;2023-07-20T00:00:52;18.98;;;6.40;;
24644;SDS011;12780;45.502;9.146;2023-07-20T00:03:18;18.65;;;7.07;;
24644;SDS011;12780;45.502;9.146;2023-07-20T00:05:48;21.20;;;6.80;;
24644;SDS011;12780;45.502;9.146;2023-07-20T00:08:14;17.40;;;6.40;;
24644;SDS011;12780;45.502;9.146;2023-07-20T00:10:41;20.77;;;6.78;;
24644;SDS011;12780;45.502;9.146;2023-07-20T00:13:07;18.75;;;6.82;;
24644;SDS011;12780;45.502;9.146;2023-07-20T00:15:33;24.75;;;7.03;;
24644;SDS011;12780;45.502;9.146;2023-07-20T00:17:59;21.77;;;8.10;;
24644;SDS011;12780;45.502;9.146;2023-07-20T00:20:25;23.20;;;7.10;;
24644;SDS011;12780;45.502;9.146;2023-07-20T00:22:51;20.95;;;5.85;;
24644;SDS011;12780;45.502;9.146;2023-07-20T00:25:17;20.45;;;6.70;;
24644;SDS011;12780;45.502;9.146;2023-07-20T00:27:44;19.58;;;5.65;;
24644;SDS011;12780;45.502;9.146;2023-07-20T00:30:10;23.17;;;5.75;;
24644;SDS011;12780;45.502;9.146;2023-07-20T00:32:36;24.73;;;5.60;;
24644;SDS011;12780;45.502;9.146;2023-07-20T00:35:02;22.40;;;5.47;;
24644;SDS011;12780;45.502;9.146;2023-07-20T00:37:28;19.42;;;5.40;;
24644;SDS011;12780;45.502;9.146;2023-07-20T00:39:54;13.43;;;5.50;;
24644;SDS011;12780;45.502;9.146;2023-07-20T00:42:20;16.35;;;5.25;;
24644;SDS011;12780;45.502;9.146;2023-07-20T00:44:46;15.20;;;5.22;;
24644;SDS011;12780;45.502;9.146;2023-07-20T00:47:12;14.63;;;5.18;;
24644;SDS011;12780;45.502;9.146;2023-07-20T00:49:38;17.83;;;5.63;;
24644;SDS011;12780;45.502;9.146;2023-07-20T00:52:06;16.52;;;5.00;;
24644;SDS011;12780;45.502;9.146;2023-07-20T00:54:32;12.77;;;4.97;;
24644;SDS011;12780;45.502;9.146;2023-07-20T00:56:58;14.75;;;5.10;;
24644;SDS011;12780;45.502;9.146;2023-07-20T00:59:25;14.45;;;5.00;;
24644;SDS011;12780;45.502;9.146;2023-07-20T01:01:51;11.70;;;4.90;;
24644;SDS011;12780;45.502;9.146;2023-07-20T01:04:17;14.05;;;5.15;;
24644;SDS011;12780;45.502;9.146;2023-07-20T01:09:31;11.45;;;5.45;;
24644;SDS011;12780;45.502;9.146;2023-07-20T01:12:02;16.50;;;5.32;;
24644;SDS011;12780;45.502;9.146;2023-07-20T01:14:31;11.93;;;5.65;;
24644;SDS011;12780;45.502;9.146;2023-07-20T01:16:57;15.15;;;5.05;;
24644;SDS011;12780;45.502;9.146;2023-07-20T01:19:23;16.25;;;5.78;;
24644;SDS011;12780;45.502;9.146;2023-07-20T01:32:23;14.48;;;5.60;;
24644;SDS011;12780;45.502;9.146;2023-07-20T01:34:49;14.90;;;5.03;;
24644;SDS011;12780;45.502;9.146;2023-07-20T01:37:17;15.73;;;5.30;;
24644;SDS011;12780;45.502;9.146;2023-07-20T01:39:45;13.25;;;5.40;;
24644;SDS011;12780;45.502;9.146;2023-07-20T01:42:11;21.33;;;6.30;;
24644;SDS011;12780;45.502;9.146;2023-07-20T01:44:38;14.70;;;5.78;;
24644;SDS011;12780;45.502;9.146;2023-07-20T01:47:04;11.35;;;5.50;;
24644;SDS011;12780;45.502;9.146;2023-07-20T01:49:30;16.70;;;5.80;;
24644;SDS011;12780;45.502;9.146;2023-07-20T01:51:56;17.77;;;5.95;;
24644;SDS011;12780;45.502;9.146;2023-07-20T01:54:23;14.15;;;6.22;;
24644;SDS011;12780;45.502;9.146;2023-07-20T01:56:48;14.25;;;5.60;;
24644;SDS011;12780;45.502;9.146;2023-07-20T01:59:15;14.15;;;6.30;;
24644;SDS011;12780;45.502;9.146;2023-07-20T02:01:41;11.27;;;6.07;;
24644;SDS011;12780;45.502;9.146;2023-07-20T02:04:07;11.13;;;5.72;;
24644;SDS011;12780;45.502;9.146;2023-07-20T02:06:32;11.93;;;5.95;;
24644;SDS011;12780;45.502;9.146;2023-07-20T02:08:59;14.95;;;5.88;;
24644;SDS011;12780;45.502;9.146;2023-07-20T02:11:25;12.82;;;6.43;;
24644;SDS011;12780;45.502;9.146;2023-07-20T02:13:51;16.60;;;5.75;;
24644;SDS011;12780;45.502;9.146;2023-07-20T02:16:17;13.98;;;6.18;;
24644;SDS011;12780;45.502;9.146;2023-07-20T02:18:43;15.93;;;6.80;;
24644;SDS011;12780;45.502;9.146;2023-07-20T02:21:09;13.90;;;6.55;;
24644;SDS011;12780;45.502;9.146;2023-07-20T02:23:35;13.38;;;6.20;;
24644;SDS011;12780;45.502;9.146;2023-07-20T02:26:01;12.65;;;6.72;;
24644;SDS011;12780;45.502;9.146;2023-07-20T02:28:27;17.38;;;7.43;;
24644;SDS011;12780;45.502;9.146;2023-07-20T02:30:54;13.98;;;6.47;;
24644;SDS011;12780;45.502;9.146;2023-07-20T02:33:20;13.90;;;6.55;;
24644;SDS011;12780;45.502;9.146;2023-07-20T02:35:46;19.25;;;6.85;;
24644;SDS011;12780;45.502;9.146;2023-07-20T02:38:12;17.77;;;6.50;;
24644;SDS011;12780;45.502;9.146;2023-07-20T02:40:38;18.48;;;7.03;;
24644;SDS011;12780;45.502;9.146;2023-07-20T02:43:04;16.25;;;7.57;;
24644;SDS011;12780;45.502;9.146;2023-07-20T02:45:30;13.77;;;6.97;;
24644;SDS011;12780;45.502;9.146;2023-07-20T02:47:56;14.68;;;6.97;;
24644;SDS011;12780;45.502;9.146;2023-07-20T02:50:22;13.60;;;7.00;;
24644;SDS011;12780;45.502;9.146;2023-07-20T02:52:49;18.30;;;7.55;;
24644;SDS011;12780;45.502;9.146;2023-07-20T02:55:15;20.35;;;8.23;;
24644;SDS011;12780;45.502;9.146;2023-07-20T02:57:41;14.63;;;7.25;;
24644;SDS011;12780;45.502;9.146;2023-07-20T03:00:07;19.77;;;7.30;;
24644;SDS011;12780;45.502;9.146;2023-07-20T03:02:33;18.08;;;7.85;;
24644;SDS011;12780;45.502;9.146;2023-07-20T03:04:59;14.85;;;7.47;;
24644;SDS011;12780;45.502;9.146;2023-07-20T03:07:28;13.02;;;7.57;;
24644;SDS011;12780;45.502;9.146;2023-07-20T03:09:54;17.08;;;7.90;;
24644;SDS011;12780;45.502;9.146;2023-07-20T03:12:20;14.38;;;8.20;;
24644;SDS011;12780;45.502;9.146;2023-07-20T03:14:47;21.25;;;8.18;;
24644;SDS011;12780;45.502;9.146;2023-07-20T03:17:13;13.15;;;7.75;;
24644;SDS011;12780;45.502;9.146;2023-07-20T03:19:38;19.00;;;8.32;;
24644;SDS011;12780;45.502;9.146;2023-07-20T03:22:05;19.65;;;7.80;;
24644;SDS011;12780;45.502;9.146;2023-07-20T03:24:31;19.38;;;8.82;;
24644;SDS011;12780;45.502;9.146;2023-07-20T03:26:57;17.50;;;8.75;;
24644;SDS011;12780;45.502;9.146;2023-07-20T03:29:24;26.23;;;8.80;;
24644;SDS011;12780;45.502;9.146;2023-07-20T03:31:50;16.75;;;8.25;;
24644;SDS011;12780;45.502;9.146;2023-07-20T03:34:16;18.95;;;8.50;;
24644;SDS011;12780;45.502;9.146;2023-07-20T03:36:42;14.38;;;8.05;;
24644;SDS011;12780;45.502;9.146;2023-07-20T03:39:09;19.77;;;9.07;;
24644;SDS011;12780;45.502;9.146;2023-07-20T03:41:35;12.70;;;7.57;;
24644;SDS011;12780;45.502;9.146;2023-07-20T03:44:02;19.40;;;8.35;;
24644;SDS011;12780;45.502;9.146;2023-07-20T03:46:28;23.58;;;8.88;;
24644;SDS011;12780;45.502;9.146;2023-07-20T03:48:54;17.40;;;8.07;;
24644;SDS011;12780;45.502;9.146;2023-07-20T03:51:20;17.65;;;8.38;;
24644;SDS011;12780;45.502;9.146;2023-07-20T03:53:46;12.40;;;7.30;;
24644;SDS011;12780;45.502;9.146;2023-07-20T03:56:12;15.68;;;8.63;;
24644;SDS011;12780;45.502;9.146;2023-07-20T03:58:38;17.73;;;8.50;;
24644;SDS011;12780;45.502;9.146;2023-07-20T04:01:04;15.75;;;8.23;;
24644;SDS011;12780;45.502;9.146;2023-07-20T04:03:30;16.67;;;8.52;;
24644;SDS011;12780;45.502;9.146;2023-07-20T04:05:56;17.73;;;8.63;;
24644;SDS011;12780;45.502;9.146;2023-07-20T04:08:25;23.40;;;9.68;;
24644;SDS011;12780;45.502;9.146;2023-07-20T04:10:51;17.88;;;8.35;;
24644;SDS011;12780;45.502;9.146;2023-07-20T04:13:17;20.67;;;8.70;;
24644;SDS011;12780;45.502;9.146;2023-07-20T04:15:43;18.27;;;8.80;;
24644;SDS011;12780;45.502;9.146;2023-07-20T04:18:10;18.35;;;9.13;;
24644;SDS011;12780;45.502;9.146;2023-07-20T04:20:36;20.17;;;9.65;;
24644;SDS011;12780;45.502;9.146;2023-07-20T04:23:02;16.58;;;9.10;;
24644;SDS011;12780;45.502;9.146;2023-07-20T04:25:28;14.38;;;8.50;;
24644;SDS011;12780;45.502;9.146;2023-07-20T04:27:54;17.73;;;8.43;;
24644;SDS011;12780;45.502;9.146;2023-07-20T04:30:20;18.48;;;8.65;;
24644;SDS011;12780;45.502;9.146;2023-07-20T04:32:47;17.98;;;8.32;;
24644;SDS011;12780;45.502;9.146;2023-07-20T04:37:58;16.67;;;8.20;;
24644;SDS011;12780;45.502;9.146;2023-07-20T04:40:24;16.05;;;8.60;;
24644;SDS011;12780;45.502;9.146;2023-07-20T04:42:51;19.70;;;8.48;;
24644;SDS011;12780;45.502;9.146;2023-07-20T04:45:16;16.88;;;9.43;;
24644;SDS011;12780;45.502;9.146;2023-07-20T04:47:44;20.38;;;9.15;;
24644;SDS011;12780;45.502;9.146;2023-07-20T04:50:10;17.75;;;8.77;;
24644;SDS011;12780;45.502;9.146;2023-07-20T04:52:36;17.33;;;8.93;;
24644;SDS011;12780;45.502;9.146;2023-07-20T04:55:02;16.00;;;8.75;;
24644;SDS011;12780;45.502;9.146;2023-07-20T04:57:29;20.55;;;9.18;;
24644;SDS011;12780;45.502;9.146;2023-07-20T04:59:55;17.83;;;9.02;;
24644;SDS011;12780;45.502;9.146;2023-07-20T05:02:21;18.52;;;9.30;;
24644;SDS011;12780;45.502;9.146;2023-07-20T05:04:47;20.90;;;9.35;;
24644;SDS011;12780;45.502;9.146;2023-07-20T05:07:13;18.58;;;9.07;;
24644;SDS011;12780;45.502;9.146;2023-07-20T05:09:39;20.70;;;9.30;;
24644;SDS011;12780;45.502;9.146;2023-07-20T05:12:05;16.42;;;9.32;;
24644;SDS011;12780;45.502;9.146;2023-07-20T05:14:32;23.58;;;9.27;;
24644;SDS011;12780;45.502;9.146;2023-07-20T05:16:58;18.67;;;10.00;;
24644;SDS011;12780;45.502;9.146;2023-07-20T05:19:24;17.50;;;9.00;;
24644;SDS011;12780;45.502;9.146;2023-07-20T05:21:50;19.75;;;9.63;;
24644;SDS011;12780;45.502;9.146;2023-07-20T05:24:16;18.80;;;9.38;;
24644;SDS011;12780;45.502;9.146;2023-07-20T05:26:42;19.92;;;9.63;;
24644;SDS011;12780;45.502;9.146;2023-07-20T05:29:08;23.42;;;8.60;;
24644;SDS011;12780;45.502;9.146;2023-07-20T05:31:34;18.50;;;9.45;;
24644;SDS011;12780;45.502;9.146;2023-07-20T05:34:01;16.63;;;8.65;;
24644;SDS011;12780;45.502;9.146;2023-07-20T05:36:27;25.83;;;9.40;;
24644;SDS011;12780;45.502;9.146;2023-07-20T05:38:53;18.67;;;9.15;;
24644;SDS011;12780;45.502;9.146;2023-07-20T05:41:19;23.25;;;9.55;;
24644;SDS011;12780;45.502;9.146;2023-07-20T05:43:45;21.17;;;9.68;;
24644;SDS011;12780;45.502;9.146;2023-07-20T05:46:11;20.95;;;10.15;;
24644;SDS011;12780;45.502;9.146;2023-07-20T05:48:37;17.48;;;8.77;;
24644;SDS011;12780;45.502;9.146;2023-07-20T05:51:03;19.67;;;9.18;;
24644;SDS011;12780;45.502;9.146;2023-07-20T05:53:29;17.75;;;9.00;;
24644;SDS011;12780;45.502;9.146;2023-07-20T05:55:55;20.92;;;9.65;;
24644;SDS011;12780;45.502;9.146;2023-07-20T05:58:21;16.45;;;9.18;;
24644;SDS011;12780;45.502;9.146;2023-07-20T06:00:48;19.73;;;8.70;;
24644;SDS011;12780;45.502;9.146;2023-07-20T06:03:15;20.70;;;8.57;;
24644;SDS011;12780;45.502;9.146;2023-07-20T06:05:46;21.10;;;8.73;;
24644;SDS011;12780;45.502;9.146;2023-07-20T06:08:12;16.63;;;8.65;;
24644;SDS011;12780;45.502;9.146;2023-07-20T06:10:38;17.50;;;8.07;;
24644;SDS011;12780;45.502;9.146;2023-07-20T06:13:05;21.75;;;8.82;;
24644;SDS011;12780;45.502;9.146;2023-07-20T06:15:32;18.60;;;8.95;;
24644;SDS011;12780;45.502;9.146;2023-07-20T06:17:59;19.92;;;8.77;;
24644;SDS011;12780;45.502;9.146;2023-07-20T06:20:26;21.15;;;8.55;;
24644;SDS011;12780;45.502;9.146;2023-07-20T06:22:52;21.20;;;9.73;;
24644;SDS011;12780;45.502;9.146;2023-07-20T06:25:18;15.50;;;8.75;;
24644;SDS011;12780;45.502;9.146;2023-07-20T06:27:45;23.10;;;9.23;;
24644;SDS011;12780;45.502;9.146;2023-07-20T06:30:11;18.92;;;9.18;;
24644;SDS011;12780;45.502;9.146;2023-07-20T06:32:38;18.85;;;8.68;;
24644;SDS011;12780;45.502;9.146;2023-07-20T06:35:04;21.20;;;9.00;;
24644;SDS011;12780;45.502;9.146;2023-07-20T06:37:30;26.27;;;10.32;;
24644;SDS011;12780;45.502;9.146;2023-07-20T06:39:57;25.27;;;9.50;;
24644;SDS011;12780;45.502;9.146;2023-07-20T06:42:23;22.90;;;9.35;;
24644;SDS011;12780;45.502;9.146;2023-07-20T06:44:49;17.63;;;9.32;;
24644;SDS011;12780;45.502;9.146;2023-07-20T06:47:15;22.45;;;8.68;;
24644;SDS011;12780;45.502;9.146;2023-07-20T06:49:41;18.98;;;8.85;;
24644;SDS011;12780;45.502;9.146;2023-07-20T06:52:08;19.27;;;9.43;;
24644;SDS011;12780;45.502;9.146;2023-07-20T06:54:34;16.63;;;8.50;;
24644;SDS011;12780;45.502;9.146;2023-07-20T06:57:00;21.23;;;8.77;;
24644;SDS011;12780;45.502;9.146;2023-07-20T06:59:26;21.92;;;8.60;;
24644;SDS011;12780;45.502;9.146;2023-07-20T07:01:52;15.77;;;7.90;;
24644;SDS011;12780;45.502;9.146;2023-07-20T07:04:18;19.80;;;9.20;;
24644;SDS011;12780;45.502;9.146;2023-07-20T07:06:44;16.80;;;7.28;;
24644;SDS011;12780;45.502;9.146;2023-07-20T07:09:10;19.50;;;8.90;;
24644;SDS011;12780;45.502;9.146;2023-07-20T07:11:36;21.52;;;8.65;;
24644;SDS011;12780;45.502;9.146;2023-07-20T07:14:02;20.05;;;8.77;;
24644;SDS011;12780;45.502;9.146;2023-07-20T07:16:28;20.75;;;9.52;;
24644;SDS011;12780;45.502;9.146;2023-07-20T07:18:54;18.95;;;8.80;;
24644;SDS011;12780;45.502;9.146;2023-07-20T07:21:20;23.95;;;9.63;;
24644;SDS011;12780;45.502;9.146;2023-07-20T07:23:46;18.55;;;8.90;;
24644;SDS011;12780;45.502;9.146;2023-07-20T07:26:13;16.80;;;8.30;;
24644;SDS011;12780;45.502;9.146;2023-07-20T07:28:39;24.00;;;9.00;;
24644;SDS011;12780;45.502;9.146;2023-07-20T07:31:05;27.05;;;8.73;;
24644;SDS011;12780;45.502;9.146;2023-07-20T07:33:31;20.40;;;9.27;;
24644;SDS011;12780;45.502;9.146;2023-07-20T07:35:57;20.33;;;9.32;;
24644;SDS011;12780;45.502;9.146;2023-07-20T07:38:24;23.30;;;8.88;;
24644;SDS011;12780;45.502;9.146;2023-07-20T07:40:50;22.92;;;8.57;;
24644;SDS011;12780;45.502;9.146;2023-07-20T07:43:16;19.00;;;8.85;;
24644;SDS011;12780;45.502;9.146;2023-07-20T07:45:42;28.23;;;8.20;;
24644;SDS011;12780;45.502;9.146;2023-07-20T07:48:08;25.67;;;8.15;;
24644;SDS011;12780;45.502;9.146;2023-07-20T07:50:36;21.85;;;8.38;;
24644;SDS011;12780;45.502;9.146;2023-07-20T07:53:02;19.85;;;8.10;;
24644;SDS011;12780;45.502;9.146;2023-07-20T07:55:28;22.67;;;8.50;;
24644;SDS011;12780;45.502;9.146;2023-07-20T07:57:54;23.27;;;8.57;;
24644;SDS011;12780;45.502;9.146;2023-07-20T08:00:21;17.77;;;7.65;;
24644;SDS011;12780;45.502;9.146;2023-07-20T08:02:47;30.88;;;8.43;;
24644;SDS011;12780;45.502;9.146;2023-07-20T08:05:13;15.32;;;7.78;;
24644;SDS011;12780;45.502;9.146;2023-07-20T08:07:39;34.33;;;8.30;;
24644;SDS011;12780;45.502;9.146;2023-07-20T08:10:05;22.88;;;8.68;;
24644;SDS011;12780;45.502;9.146;2023-07-20T08:12:32;19.42;;;7.55;;
24644;SDS011;12780;45.502;9.146;2023-07-20T08:14:58;16.55;;;7.57;;
24644;SDS011;12780;45.502;9.146;2023-07-20T08:17:24;19.98;;;8.00;;
24644;SDS011;12780;45.502;9.146;2023-07-20T08:19:50;18.80;;;7.93;;
24644;SDS011;12780;45.502;9.146;2023-07-20T08:22:16;20.83;;;7.88;;
24644;SDS011;12780;45.502;9.146;2023-07-20T08:24:42;18.65;;;8.32;;
24644;SDS011;12780;45.502;9.146;2023-07-20T08:27:09;15.88;;;7.43;;
24644;SDS011;12780;45.502;9.146;2023-07-20T08:29:36;16.20;;;7.55;;
24644;SDS011;12780;45.502;9.146;2023-07-20T08:32:02;19.65;;;8.27;;
24644;SDS011;12780;45.502;9.146;2023-07-20T08:34:29;17.90;;;7.95;;
24644;SDS011;12780;45.502;9.146;2023-07-20T08:36:55;16.60;;;7.90;;
24644;SDS011;12780;45.502;9.146;2023-07-20T08:39:21;25.92;;;8.43;;
24644;SDS011;12780;45.502;9.146;2023-07-20T08:41:48;17.08;;;7.75;;
24644;SDS011;12780;45.502;9.146;2023-07-20T08:44:14;15.70;;;7.68;;
24644;SDS011;12780;45.502;9.146;2023-07-20T08:46:40;25.90;;;9.40;;
24644;SDS011;12780;45.502;9.146;2023-07-20T08:49:07;16.35;;;8.90;;
24644;SDS011;12780;45.502;9.146;2023-07-20T08:51:33;20.35;;;8.20;;
24644;SDS011;12780;45.502;9.146;2023-07-20T08:53:59;19.70;;;8.63;;
24644;SDS011;12780;45.502;9.146;2023-07-20T08:56:26;29.00;;;10.23;;
24644;SDS011;12780;45.502;9.146;2023-07-20T08:58:55;19.35;;;8.52;;
24644;SDS011;12780;45.502;9.146;2023-07-20T09:01:22;23.75;;;12.02;;
24644;SDS011;12780;45.502;9.146;2023-07-20T09:03:48;25.38;;;10.57;;
24644;SDS011;12780;45.502;9.146;2023-07-20T09:06:14;21.00;;;8.30;;
24644;SDS011;12780;45.502;9.146;2023-07-20T09:08:41;18.35;;;8.13;;
24644;SDS011;12780;45.502;9.146;2023-07-20T09:11:07;18.20;;;8.30;;
24644;SDS011;12780;45.502;9.146;2023-07-20T09:13:34;16.80;;;7.13;;
24644;SDS011;12780;45.502;9.146;2023-07-20T09:16:00;14.75;;;7.95;;
24644;SDS011;12780;45.502;9.146;2023-07-20T09:18:30;18.05;;;7.32;;
24644;SDS011;12780;45.502;9.146;2023-07-20T09:21:02;14.73;;;7.63;;
24644;SDS011;12780;45.502;9.146;2023-07-20T09:23:29;19.17;;;8.15;;
24644;SDS011;12780;45.502;9.146;2023-07-20T09:25:57;20.42;;;9.27;;
24644;SDS011;12780;45.502;9.146;2023-07-20T09:28:23;19.65;;;8.20;;
24644;SDS011;12780;45.502;9.146;2023-07-20T09:30:49;17.90;;;9.23;;
24644;SDS011;12780;45.502;9.146;2023-07-20T09:33:21;15.98;;;8.15;;
24644;SDS011;12780;45.502;9.146;2023-07-20T09:38:14;16.80;;;7.32;;
24644;SDS011;12780;45.502;9.146;2023-07-20T09:40:40;20.00;;;7.60;;
24644;SDS011;12780;45.502;9.146;2023-07-20T09:43:10;17.58;;;8.10;;
24644;SDS011;12780;45.502;9.146;2023-07-20T09:45:42;19.08;;;7.35;;
24644;SDS011;12780;45.502;9.146;2023-07-20T09:48:09;15.90;;;7.45;;
24644;SDS011;12780;45.502;9.146;2023-07-20T09:50:42;22.83;;;7.90;;
24644;SDS011;12780;45.502;9.146;2023-07-20T09:53:10;23.15;;;8.18;;
24644;SDS011;12780;45.502;9.146;2023-07-20T09:55:38;24.00;;;8.38;;
24644;SDS011;12780;45.502;9.146;2023-07-20T09:58:04;26.63;;;8.77;;
24644;SDS011;12780;45.502;9.146;2023-07-20T10:00:32;19.00;;;9.00;;
24644;SDS011;12780;45.502;9.146;2023-07-20T10:02:58;18.63;;;8.57;;
24644;SDS011;12780;45.502;9.146;2023-07-20T10:05:27;22.42;;;8.40;;
24644;SDS011;12780;45.502;9.146;2023-07-20T10:07:55;18.35;;;8.10;;
24644;SDS011;12780;45.502;9.146;2023-07-20T10:10:22;19.77;;;8.73;;
24644;SDS011;12780;45.502;9.146;2023-07-20T10:12:48;19.30;;;9.00;;
24644;SDS011;12780;45.502;9.146;2023-07-20T10:15:24;19.65;;;9.15;;
24644;SDS011;12780;45.502;9.146;2023-07-20T10:17:57;16.98;;;8.15;;
24644;SDS011;12780;45.502;9.146;2023-07-20T10:20:25;16.85;;;7.97;;
24644;SDS011;12780;45.502;9.146;2023-07-20T10:22:53;15.88;;;7.90;;
24644;SDS011;12780;45.502;9.146;2023-07-20T10:25:20;25.58;;;8.38;;
24644;SDS011;12780;45.502;9.146;2023-07-20T10:27:47;15.35;;;7.72;;
24644;SDS011;12780;45.502;9.146;2023-07-20T10:30:13;22.27;;;7.82;;
24644;SDS011;12780;45.502;9.146;2023-07-20T10:32:39;19.10;;;8.13;;
24644;SDS011;12780;45.502;9.146;2023-07-20T10:35:15;18.15;;;8.77;;
24644;SDS011;12780;45.502;9.146;2023-07-20T10:37:45;17.40;;;8.27;;
24644;SDS011;12780;45.502;9.146;2023-07-20T10:40:26;21.23;;;8.15;;
24644;SDS011;12780;45.502;9.146;2023-07-20T10:48:27;24.08;;;7.75;;
24644;SDS011;12780;45.502;9.146;2023-07-20T10:51:12;18.23;;;7.55;;
24644;SDS011;12780;45.502;9.146;2023-07-20T10:53:39;17.60;;;7.13;;
24644;SDS011;12780;45.502;9.146;2023-07-20T10:56:06;17.00;;;7.55;;
24644;SDS011;12780;45.502;9.146;2023-07-20T10:58:33;16.05;;;8.30;;
24644;SDS011;12780;45.502;9.146;2023-07-20T11:01:00;18.98;;;8.52;;
24644;SDS011;12780;45.502;9.146;2023-07-20T11:03:29;19.40;;;9.25;;
24644;SDS011;12780;45.502;9.146;2023-07-20T11:05:56;19.00;;;8.13;;
24644;SDS011;12780;45.502;9.146;2023-07-20T11:08:38;19.73;;;7.90;;
24644;SDS011;12780;45.502;9.146;2023-07-20T11:11:23;19.80;;;8.07;;
24644;SDS011;12780;45.502;9.146;2023-07-20T11:13:57;17.02;;;7.82;;
24644;SDS011;12780;45.502;9.146;2023-07-20T11:19:02;14.98;;;8.02;;
24644;SDS011;12780;45.502;9.146;2023-07-20T11:21:29;19.35;;;8.35;;
24644;SDS011;12780;45.502;9.146;2023-07-20T11:23:56;18.92;;;8.10;;
24644;SDS011;12780;45.502;9.146;2023-07-20T11:26:22;17.00;;;7.85;;
24644;SDS011;12780;45.502;9.146;2023-07-20T11:28:49;18.17;;;8.55;;
24644;SDS011;12780;45.502;9.146;2023-07-20T11:31:16;17.48;;;9.38;;
24644;SDS011;12780;45.502;9.146;2023-07-20T11:33:42;24.33;;;8.32;;
24644;SDS011;12780;45.502;9.146;2023-07-20T11:36:08;17.35;;;8.07;;
24644;SDS011;12780;45.502;9.146;2023-07-20T11:38:35;20.02;;;8.23;;
24644;SDS011;12780;45.502;9.146;2023-07-20T11:41:02;21.60;;;8.27;;
24644;SDS011;12780;45.502;9.146;2023-07-20T11:43:28;17.48;;;7.80;;
24644;SDS011;12780;45.502;9.146;2023-07-20T11:45:55;19.27;;;7.68;;
24644;SDS011;12780;45.502;9.146;2023-07-20T11:48:21;22.65;;;7.97;;
24644;SDS011;12780;45.502;9.146;2023-07-20T11:50:47;20.75;;;7.88;;
24644;SDS011;12780;45.502;9.146;2023-07-20T11:53:14;15.40;;;7.95;;
24644;SDS011;12780;45.502;9.146;2023-07-20T11:55:40;18.50;;;8.18;;
24644;SDS011;12780;45.502;9.146;2023-07-20T11:58:07;19.15;;;8.25;;
24644;SDS011;12780;45.502;9.146;2023-07-20T12:00:33;15.38;;;8.05;;
24644;SDS011;12780;45.502;9.146;2023-07-20T12:03:00;20.02;;;7.90;;
24644;SDS011;12780;45.502;9.146;2023-07-20T12:05:26;16.92;;;7.45;;
24644;SDS011;12780;45.502;9.146;2023-07-20T12:07:52;15.77;;;7.28;;
24644;SDS011;12780;45.502;9.146;2023-07-20T12:10:25;16.27;;;8.07;;
24644;SDS011;12780;45.502;9.146;2023-07-20T12:12:51;15.95;;;7.90;;
24644;SDS011;12780;45.502;9.146;2023-07-20T12:17:51;15.88;;;8.05;;
24644;SDS011;12780;45.502;9.146;2023-07-20T12:20:27;16.40;;;7.40;;
24644;SDS011;12780;45.502;9.146;2023-07-20T12:22:55;17.17;;;7.78;;
24644;SDS011;12780;45.502;9.146;2023-07-20T12:25:21;22.58;;;8.43;;
24644;SDS011;12780;45.502;9.146;2023-07-20T12:27:48;14.95;;;7.47;;
24644;SDS011;12780;45.502;9.146;2023-07-20T12:30:14;14.88;;;7.50;;
24644;SDS011;12780;45.502;9.146;2023-07-20T12:32:40;17.10;;;8.25;;
24644;SDS011;12780;45.502;9.146;2023-07-20T12:35:06;17.08;;;8.57;;
24644;SDS011;12780;45.502;9.146;2023-07-20T12:37:32;13.88;;;7.82;;
24644;SDS011;12780;45.502;9.146;2023-07-20T12:39:58;16.38;;;7.78;;
24644;SDS011;12780;45.502;9.146;2023-07-20T12:42:25;15.45;;;7.50;;
24644;SDS011;12780;45.502;9.146;2023-07-20T12:44:51;16.48;;;7.28;;
24644;SDS011;12780;45.502;9.146;2023-07-20T12:47:17;15.75;;;7.30;;
24644;SDS011;12780;45.502;9.146;2023-07-20T12:49:44;14.90;;;7.50;;
24644;SDS011;12780;45.502;9.146;2023-07-20T12:52:10;15.00;;;7.28;;
24644;SDS011;12780;45.502;9.146;2023-07-20T12:54:36;21.60;;;7.43;;
24644;SDS011;12780;45.502;9.146;2023-07-20T12:57:02;15.73;;;7.97;;
24644;SDS011;12780;45.502;9.146;2023-07-20T12:59:29;17.02;;;8.18;;
24644;SDS011;12780;45.502;9.146;2023-07-20T13:01:55;18.40;;;7.63;;
24644;SDS011;12780;45.502;9.146;2023-07-20T13:04:21;15.45;;;8.05;;
24644;SDS011;12780;45.502;9.146;2023-07-20T13:06:47;12.80;;;7.38;;
24644;SDS011;12780;45.502;9.146;2023-07-20T13:09:13;14.68;;;6.88;;
24644;SDS011;12780;45.502;9.146;2023-07-20T13:11:39;11.80;;;6.28;;
24644;SDS011;12780;45.502;9.146;2023-07-20T13:14:05;13.45;;;6.72;;
24644;SDS011;12780;45.502;9.146;2023-07-20T13:16:31;15.80;;;6.55;;
24644;SDS011;12780;45.502;9.146;2023-07-20T13:18:57;15.35;;;6.78;;
24644;SDS011;12780;45.502;9.146;2023-07-20T13:21:23;21.52;;;6.65;;
24644;SDS011;12780;45.502;9.146;2023-07-20T13:23:49;23.40;;;7.30;;
24644;SDS011;12780;45.502;9.146;2023-07-20T13:26:15;12.55;;;6.50;;
24644;SDS011;12780;45.502;9.146;2023-07-20T13:28:41;11.68;;;6.72;;
24644;SDS011;12780;45.502;9.146;2023-07-20T13:31:07;17.10;;;6.97;;
24644;SDS011;12780;45.502;9.146;2023-07-20T13:33:35;19.27;;;6.43;;
24644;SDS011;12780;45.502;9.146;2023-07-20T13:36:02;15.05;;;6.45;;
24644;SDS011;12780;45.502;9.146;2023-07-20T13:38:30;13.85;;;7.00;;
24644;SDS011;12780;45.502;9.146;2023-07-20T13:40:56;22.30;;;6.75;;
24644;SDS011;12780;45.502;9.146;2023-07-20T13:43:22;12.07;;;6.45;;
24644;SDS011;12780;45.502;9.146;2023-07-20T13:45:48;23.55;;;6.50;;
24644;SDS011;12780;45.502;9.146;2023-07-20T13:48:15;16.55;;;5.82;;
24644;SDS011;12780;45.502;9.146;2023-07-20T13:50:44;15.93;;;6.10;;
24644;SDS011;12780;45.502;9.146;2023-07-20T13:53:10;13.73;;;5.97;;
24644;SDS011;12780;45.502;9.146;2023-07-20T13:55:37;18.48;;;6.78;;
24644;SDS011;12780;45.502;9.146;2023-07-20T13:58:04;18.98;;;6.90;;
24644;SDS011;12780;45.502;9.146;2023-07-20T14:00:30;15.65;;;6.53;;
24644;SDS011;12780;45.502;9.146;2023-07-20T14:02:58;17.00;;;6.63;;
24644;SDS011;12780;45.502;9.146;2023-07-20T14:05:24;16.38;;;6.80;;
24644;SDS011;12780;45.502;9.146;2023-07-20T14:07:50;12.52;;;6.65;;
24644;SDS011;12780;45.502;9.146;2023-07-20T14:10:16;15.90;;;6.05;;
24644;SDS011;12780;45.502;9.146;2023-07-20T14:12:43;12.13;;;6.32;;
24644;SDS011;12780;45.502;9.146;2023-07-20T14:15:10;15.60;;;5.90;;
24644;SDS011;12780;45.502;9.146;2023-07-20T14:17:36;9.95;;;6.18;;
24644;SDS011;12780;45.502;9.146;2023-07-20T14:20:02;12.18;;;6.45;;
24644;SDS011;12780;45.502;9.146;2023-07-20T14:22:33;16.60;;;6.85;;
24644;SDS011;12780;45.502;9.146;2023-07-20T14:24:59;12.02;;;6.47;;
24644;SDS011;12780;45.502;9.146;2023-07-20T14:27:25;12.43;;;6.18;;
24644;SDS011;12780;45.502;9.146;2023-07-20T14:29:51;12.38;;;5.95;;
24644;SDS011;12780;45.502;9.146;2023-07-20T14:32:18;15.73;;;5.88;;
24644;SDS011;12780;45.502;9.146;2023-07-20T14:34:44;13.77;;;6.00;;
24644;SDS011;12780;45.502;9.146;2023-07-20T14:37:10;10.25;;;5.80;;
24644;SDS011;12780;45.502;9.146;2023-07-20T14:39:36;11.65;;;5.82;;
24644;SDS011;12780;45.502;9.146;2023-07-20T14:42:03;14.07;;;5.50;;
24644;SDS011;12780;45.502;9.146;2023-07-20T14:44:29;11.52;;;6.00;;
24644;SDS011;12780;45.502;9.146;2023-07-20T14:46:55;12.50;;;6.00;;
24644;SDS011;12780;45.502;9.146;2023-07-20T14:49:21;13.00;;;5.80;;
24644;SDS011;12780;45.502;9.146;2023-07-20T14:51:47;18.23;;;6.40;;
24644;SDS011;12780;45.502;9.146;2023-07-20T14:54:14;14.90;;;5.90;;
24644;SDS011;12780;45.502;9.146;2023-07-20T14:56:47;17.65;;;6.28;;
24644;SDS011;12780;45.502;9.146;2023-07-20T14:59:14;14.73;;;6.43;;